sensor_id;sensor_type;location;lat;lon;timestamp;temperature;humidity
52743;DHT22;55583;53.012;6.556;2022-08-18T00:00:06;18.90;99.90
52743;DHT22;55583;53.012;6.556;2022-08-18T00:02:37;18.90;99.90
52743;DHT22;55583;53.012;6.556;2022-08-18T00:05:03;18.90;99.90
52743;DHT22;55583;53.012;6.556;2022-08-18T00:07:31;18.90;99.90
52743;DHT22;55583;53.012;6.556;2022-08-18T00:09:57;18.90;99.90
52743;DHT22;55583;53.012;6.556;2022-08-18T00:12:33;19.00;99.90
52743;DHT22;55583;53.012;6.556;2022-08-18T00:14:59;19.00;99.90
52743;DHT22;55583;53.012;6.556;2022-08-18T00:17:28;18.90;99.90
52743;DHT22;55583;53.012;6.556;2022-08-18T00:19:54;18.90;99.90
52743;DHT22;55583;53.012;6.556;2022-08-18T00:22:20;19.00;99.90
52743;DHT22;55583;53.012;6.556;2022-08-18T00:24:49;18.90;99.90
52743;DHT22;55583;53.012;6.556;2022-08-18T00:27:17;18.90;99.90
52743;DHT22;55583;53.012;6.556;2022-08-18T00:29:49;18.90;99.90
52743;DHT22;55583;53.012;6.556;2022-08-18T00:32:18;18.90;99.90
52743;DHT22;55583;53.012;6.556;2022-08-18T00:34:44;18.90;99.90
52743;DHT22;55583;53.012;6.556;2022-08-18T00:37:10;18.90;99.90
52743;DHT22;55583;53.012;6.556;2022-08-18T00:39:36;18.90;99.90
52743;DHT22;55583;53.012;6.556;2022-08-18T00:42:16;18.90;99.90
52743;DHT22;55583;53.012;6.556;2022-08-18T00:44:42;18.80;99.90
52743;DHT22;55583;53.012;6.556;2022-08-18T00:47:07;18.90;99.90
52743;DHT22;55583;53.012;6.556;2022-08-18T00:49:34;18.90;99.90
52743;DHT22;55583;53.012;6.556;2022-08-18T00:52:00;18.80;99.90
52743;DHT22;55583;53.012;6.556;2022-08-18T00:54:30;18.90;99.90
52743;DHT22;55583;53.012;6.556;2022-08-18T00:57:02;18.90;99.90
52743;DHT22;55583;53.012;6.556;2022-08-18T00:59:48;18.90;99.90
52743;DHT22;55583;53.012;6.556;2022-08-18T01:02:20;18.90;99.90
52743;DHT22;55583;53.012;6.556;2022-08-18T01:04:56;18.90;99.90
52743;DHT22;55583;53.012;6.556;2022-08-18T01:07:44;18.90;99.90
52743;DHT22;55583;53.012;6.556;2022-08-18T01:10:15;18.90;99.90
52743;DHT22;55583;53.012;6.556;2022-08-18T01:12:49;18.90;99.90
52743;DHT22;55583;53.012;6.556;2022-08-18T01:15:17;18.90;99.90
52743;DHT22;55583;53.012;6.556;2022-08-18T01:17:44;18.90;99.90
52743;DHT22;55583;53.012;6.556;2022-08-18T01:20:35;18.90;99.90
52743;DHT22;55583;53.012;6.556;2022-08-18T01:23:21;18.80;99.90
52743;DHT22;55583;53.012;6.556;2022-08-18T01:25:48;18.80;99.90
52743;DHT22;55583;53.012;6.556;2022-08-18T01:28:40;18.80;99.90
52743;DHT22;55583;53.012;6.556;2022-08-18T01:31:08;18.70;99.90
52743;DHT22;55583;53.012;6.556;2022-08-18T01:33:36;18.80;99.90
52743;DHT22;55583;53.012;6.556;2022-08-18T01:36:18;18.70;99.90
52743;DHT22;55583;53.012;6.556;2022-08-18T01:38:46;18.70;99.90
52743;DHT22;55583;53.012;6.556;2022-08-18T01:41:12;18.70;99.90
52743;DHT22;55583;53.012;6.556;2022-08-18T01:43:38;18.60;99.90
52743;DHT22;55583;53.012;6.556;2022-08-18T01:46:04;18.70;99.90
52743;DHT22;55583;53.012;6.556;2022-08-18T01:48:31;18.70;99.90
52743;DHT22;55583;53.012;6.556;2022-08-18T01:51:02;18.70;99.90
52743;DHT22;55583;53.012;6.556;2022-08-18T01:53:29;18.70;99.90
52743;DHT22;55583;53.012;6.556;2022-08-18T01:55:54;18.60;99.90
52743;DHT22;55583;53.012;6.556;2022-08-18T01:58:21;18.70;99.90
52743;DHT22;55583;53.012;6.556;2022-08-18T02:00:52;18.70;99.90
52743;DHT22;55583;53.012;6.556;2022-08-18T02:03:19;18.60;99.90
52743;DHT22;55583;53.012;6.556;2022-08-18T02:05:47;18.60;99.90
52743;DHT22;55583;53.012;6.556;2022-08-18T02:08:14;18.60;99.90
52743;DHT22;55583;53.012;6.556;2022-08-18T02:10:40;18.60;99.90
52743;DHT22;55583;53.012;6.556;2022-08-18T02:13:07;18.60;99.90
52743;DHT22;55583;53.012;6.556;2022-08-18T02:15:33;18.60;99.90
52743;DHT22;55583;53.012;6.556;2022-08-18T02:17:59;18.50;99.90
52743;DHT22;55583;53.012;6.556;2022-08-18T02:20:25;18.60;99.90
52743;DHT22;55583;53.012;6.556;2022-08-18T02:22:51;18.60;99.90
52743;DHT22;55583;53.012;6.556;2022-08-18T02:25:17;18.60;99.90
52743;DHT22;55583;53.012;6.556;2022-08-18T02:27:44;18.60;99.90
52743;DHT22;55583;53.012;6.556;2022-08-18T02:30:13;18.60;99.90
52743;DHT22;55583;53.012;6.556;2022-08-18T02:32:39;18.50;99.90
52743;DHT22;55583;53.012;6.556;2022-08-18T02:35:06;18.60;99.90
52743;DHT22;55583;53.012;6.556;2022-08-18T02:37:32;18.50;99.90
52743;DHT22;55583;53.012;6.556;2022-08-18T02:39:58;18.50;99.90
52743;DHT22;55583;53.012;6.556;2022-08-18T02:42:24;18.40;99.90
52743;DHT22;55583;53.012;6.556;2022-08-18T02:44:50;18.50;99.90
52743;DHT22;55583;53.012;6.556;2022-08-18T02:47:19;18.50;99.90
52743;DHT22;55583;53.012;6.556;2022-08-18T02:49:45;18.50;99.90
52743;DHT22;55583;53.012;6.556;2022-08-18T02:52:11;18.50;99.90
52743;DHT22;55583;53.012;6.556;2022-08-18T02:54:37;18.50;99.90
52743;DHT22;55583;53.012;6.556;2022-08-18T02:57:10;18.50;99.90
52743;DHT22;55583;53.012;6.556;2022-08-18T02:59:37;18.50;99.90
52743;DHT22;55583;53.012;6.556;2022-08-18T03:02:04;18.50;99.90
52743;DHT22;55583;53.012;6.556;2022-08-18T03:04:32;18.60;99.90
52743;DHT22;55583;53.012;6.556;2022-08-18T03:07:01;18.60;99.90
52743;DHT22;55583;53.012;6.556;2022-08-18T03:09:28;18.40;99.90
52743;DHT22;55583;53.012;6.556;2022-08-18T03:11:54;18.50;99.90
52743;DHT22;55583;53.012;6.556;2022-08-18T03:14:20;18.60;99.90
52743;DHT22;55583;53.012;6.556;2022-08-18T03:16:47;18.40;99.90
52743;DHT22;55583;53.012;6.556;2022-08-18T03:19:14;18.60;99.90
52743;DHT22;55583;53.012;6.556;2022-08-18T03:21:41;18.50;99.90
52743;DHT22;55583;53.012;6.556;2022-08-18T03:24:07;18.60;99.90
52743;DHT22;55583;53.012;6.556;2022-08-18T03:26:33;18.50;99.90
52743;DHT22;55583;53.012;6.556;2022-08-18T03:28:59;18.60;99.90
52743;DHT22;55583;53.012;6.556;2022-08-18T03:31:27;18.60;99.90
52743;DHT22;55583;53.012;6.556;2022-08-18T03:33:54;18.50;99.90
52743;DHT22;55583;53.012;6.556;2022-08-18T03:36:23;18.50;99.90
52743;DHT22;55583;53.012;6.556;2022-08-18T03:38:50;18.40;99.90
52743;DHT22;55583;53.012;6.556;2022-08-18T03:41:20;18.40;99.90
52743;DHT22;55583;53.012;6.556;2022-08-18T03:43:47;18.40;99.90
52743;DHT22;55583;53.012;6.556;2022-08-18T03:46:14;18.40;99.90
52743;DHT22;55583;53.012;6.556;2022-08-18T03:48:42;18.60;99.90
52743;DHT22;55583;53.012;6.556;2022-08-18T03:51:29;18.40;99.90
52743;DHT22;55583;53.012;6.556;2022-08-18T03:53:58;18.40;99.90
52743;DHT22;55583;53.012;6.556;2022-08-18T03:56:28;18.40;99.90
52743;DHT22;55583;53.012;6.556;2022-08-18T03:58:57;18.30;99.90
52743;DHT22;55583;53.012;6.556;2022-08-18T04:01:26;18.40;99.90
52743;DHT22;55583;53.012;6.556;2022-08-18T04:03:56;18.30;99.90
52743;DHT22;55583;53.012;6.556;2022-08-18T04:06:25;18.20;99.90
52743;DHT22;55583;53.012;6.556;2022-08-18T04:08:52;18.30;99.90
52743;DHT22;55583;53.012;6.556;2022-08-18T04:11:18;18.30;99.90
52743;DHT22;55583;53.012;6.556;2022-08-18T04:13:44;18.30;99.90
52743;DHT22;55583;53.012;6.556;2022-08-18T04:16:10;18.30;99.90
52743;DHT22;55583;53.012;6.556;2022-08-18T04:18:36;18.30;99.90
52743;DHT22;55583;53.012;6.556;2022-08-18T04:21:03;18.30;99.90
52743;DHT22;55583;53.012;6.556;2022-08-18T04:23:33;18.30;99.90
52743;DHT22;55583;53.012;6.556;2022-08-18T04:26:00;18.40;99.90
52743;DHT22;55583;53.012;6.556;2022-08-18T04:28:27;18.30;99.90
52743;DHT22;55583;53.012;6.556;2022-08-18T04:30:53;18.30;99.90
52743;DHT22;55583;53.012;6.556;2022-08-18T04:33:21;18.20;99.90
52743;DHT22;55583;53.012;6.556;2022-08-18T04:35:46;18.30;99.90
52743;DHT22;55583;53.012;6.556;2022-08-18T04:38:12;18.30;99.90
52743;DHT22;55583;53.012;6.556;2022-08-18T04:40:39;18.30;99.90
52743;DHT22;55583;53.012;6.556;2022-08-18T04:43:06;18.30;99.90
52743;DHT22;55583;53.012;6.556;2022-08-18T04:45:36;18.20;99.90
52743;DHT22;55583;53.012;6.556;2022-08-18T04:48:04;18.30;99.90
52743;DHT22;55583;53.012;6.556;2022-08-18T04:50:30;18.20;99.90
52743;DHT22;55583;53.012;6.556;2022-08-18T04:52:55;18.30;99.90
52743;DHT22;55583;53.012;6.556;2022-08-18T04:55:48;18.20;99.90
52743;DHT22;55583;53.012;6.556;2022-08-18T04:58:14;18.20;99.90
52743;DHT22;55583;53.012;6.556;2022-08-18T05:00:41;18.20;99.90
52743;DHT22;55583;53.012;6.556;2022-08-18T05:03:08;18.20;99.90
52743;DHT22;55583;53.012;6.556;2022-08-18T05:05:34;18.30;99.90
52743;DHT22;55583;53.012;6.556;2022-08-18T05:08:00;18.20;99.90
52743;DHT22;55583;53.012;6.556;2022-08-18T05:10:26;18.20;99.90
52743;DHT22;55583;53.012;6.556;2022-08-18T05:12:51;18.30;99.90
52743;DHT22;55583;53.012;6.556;2022-08-18T05:15:17;18.30;99.90
52743;DHT22;55583;53.012;6.556;2022-08-18T05:17:43;18.30;99.90
52743;DHT22;55583;53.012;6.556;2022-08-18T05:20:10;18.30;99.90
52743;DHT22;55583;53.012;6.556;2022-08-18T05:22:37;18.40;99.90
52743;DHT22;55583;53.012;6.556;2022-08-18T05:25:04;18.50;99.90
52743;DHT22;55583;53.012;6.556;2022-08-18T05:27:31;18.40;99.90
52743;DHT22;55583;53.012;6.556;2022-08-18T05:29:57;18.40;99.90
52743;DHT22;55583;53.012;6.556;2022-08-18T05:32:23;18.40;99.90
52743;DHT22;55583;53.012;6.556;2022-08-18T05:34:48;18.40;99.90
52743;DHT22;55583;53.012;6.556;2022-08-18T05:37:26;18.40;99.90
52743;DHT22;55583;53.012;6.556;2022-08-18T05:40:04;18.50;99.90
52743;DHT22;55583;53.012;6.556;2022-08-18T05:42:36;18.60;99.90
52743;DHT22;55583;53.012;6.556;2022-08-18T05:45:09;18.60;99.90
52743;DHT22;55583;53.012;6.556;2022-08-18T05:47:35;18.60;99.90
52743;DHT22;55583;53.012;6.556;2022-08-18T05:50:07;18.60;99.90
52743;DHT22;55583;53.012;6.556;2022-08-18T05:55:33;18.70;99.90
52743;DHT22;55583;53.012;6.556;2022-08-18T05:58:25;18.70;99.90
52743;DHT22;55583;53.012;6.556;2022-08-18T06:01:00;18.80;99.90
52743;DHT22;55583;53.012;6.556;2022-08-18T06:03:34;18.70;99.90
52743;DHT22;55583;53.012;6.556;2022-08-18T06:06:06;18.80;99.90
52743;DHT22;55583;53.012;6.556;2022-08-18T06:08:43;18.80;99.90
52743;DHT22;55583;53.012;6.556;2022-08-18T06:11:10;18.90;99.90
52743;DHT22;55583;53.012;6.556;2022-08-18T06:13:39;19.00;99.90
52743;DHT22;55583;53.012;6.556;2022-08-18T06:21:56;19.10;99.90
52743;DHT22;55583;53.012;6.556;2022-08-18T06:24:56;19.20;99.90
52743;DHT22;55583;53.012;6.556;2022-08-18T06:27:52;19.50;99.90
52743;DHT22;55583;53.012;6.556;2022-08-18T06:41:37;19.60;99.90
52743;DHT22;55583;53.012;6.556;2022-08-18T06:44:05;19.60;99.90
52743;DHT22;55583;53.012;6.556;2022-08-18T06:46:54;19.50;99.90
52743;DHT22;55583;53.012;6.556;2022-08-18T06:52:25;19.60;99.90
52743;DHT22;55583;53.012;6.556;2022-08-18T06:54:53;19.60;99.90
52743;DHT22;55583;53.012;6.556;2022-08-18T06:57:25;20.20;99.90
52743;DHT22;55583;53.012;6.556;2022-08-18T07:00:06;19.70;99.90
52743;DHT22;55583;53.012;6.556;2022-08-18T07:02:54;19.90;99.90
52743;DHT22;55583;53.012;6.556;2022-08-18T07:05:26;19.90;99.90
52743;DHT22;55583;53.012;6.556;2022-08-18T07:10:42;20.00;99.90
52743;DHT22;55583;53.012;6.556;2022-08-18T07:15:38;20.20;99.90
52743;DHT22;55583;53.012;6.556;2022-08-18T07:18:06;20.20;99.90
52743;DHT22;55583;53.012;6.556;2022-08-18T07:20:42;20.30;99.90
52743;DHT22;55583;53.012;6.556;2022-08-18T07:23:22;20.40;99.90
52743;DHT22;55583;53.012;6.556;2022-08-18T07:25:52;20.40;99.90
52743;DHT22;55583;53.012;6.556;2022-08-18T07:31:15;20.40;99.90
52743;DHT22;55583;53.012;6.556;2022-08-18T07:33:48;20.40;99.90
52743;DHT22;55583;53.012;6.556;2022-08-18T07:36:15;20.40;99.90
52743;DHT22;55583;53.012;6.556;2022-08-18T07:38:49;20.30;99.90
52743;DHT22;55583;53.012;6.556;2022-08-18T07:41:20;20.40;99.90
52743;DHT22;55583;53.012;6.556;2022-08-18T07:46:23;20.40;99.90
52743;DHT22;55583;53.012;6.556;2022-08-18T07:48:50;20.60;99.90
52743;DHT22;55583;53.012;6.556;2022-08-18T07:54:18;20.70;99.90
52743;DHT22;55583;53.012;6.556;2022-08-18T07:56:52;20.50;99.90
52743;DHT22;55583;53.012;6.556;2022-08-18T07:59:42;20.40;99.90
52743;DHT22;55583;53.012;6.556;2022-08-18T08:08:08;20.20;99.90
52743;DHT22;55583;53.012;6.556;2022-08-18T08:16:21;20.40;99.90
52743;DHT22;55583;53.012;6.556;2022-08-18T08:27:23;20.60;99.90
52743;DHT22;55583;53.012;6.556;2022-08-18T08:30:05;20.70;99.90
52743;DHT22;55583;53.012;6.556;2022-08-18T08:32:35;20.70;99.90
52743;DHT22;55583;53.012;6.556;2022-08-18T08:35:16;20.80;99.90
52743;DHT22;55583;53.012;6.556;2022-08-18T08:37:58;20.80;99.90
52743;DHT22;55583;53.012;6.556;2022-08-18T08:40:50;20.70;99.90
52743;DHT22;55583;53.012;6.556;2022-08-18T08:43:46;20.70;99.90
52743;DHT22;55583;53.012;6.556;2022-08-18T08:46:20;20.80;99.90
52743;DHT22;55583;53.012;6.556;2022-08-18T08:48:51;20.80;99.90
52743;DHT22;55583;53.012;6.556;2022-08-18T08:51:42;20.90;99.90
52743;DHT22;55583;53.012;6.556;2022-08-18T08:54:34;21.00;99.90
52743;DHT22;55583;53.012;6.556;2022-08-18T08:57:02;21.10;99.90
52743;DHT22;55583;53.012;6.556;2022-08-18T08:59:29;21.30;99.90
52743;DHT22;55583;53.012;6.556;2022-08-18T09:05:22;22.00;99.90
52743;DHT22;55583;53.012;6.556;2022-08-18T09:08:17;22.20;99.90
52743;DHT22;55583;53.012;6.556;2022-08-18T09:19:29;22.20;99.90
52743;DHT22;55583;53.012;6.556;2022-08-18T09:22:50;22.30;99.90
52743;DHT22;55583;53.012;6.556;2022-08-18T09:25:29;22.20;99.90
52743;DHT22;55583;53.012;6.556;2022-08-18T09:35:58;21.90;99.90
52743;DHT22;55583;53.012;6.556;2022-08-18T09:38:31;21.90;99.90
52743;DHT22;55583;53.012;6.556;2022-08-18T09:41:27;22.10;99.90
52743;DHT22;55583;53.012;6.556;2022-08-18T09:44:02;22.40;99.90
52743;DHT22;55583;53.012;6.556;2022-08-18T09:54:28;22.60;99.90
52743;DHT22;55583;53.012;6.556;2022-08-18T09:57:15;22.60;99.90
52743;DHT22;55583;53.012;6.556;2022-08-18T10:02:13;22.60;99.90
52743;DHT22;55583;53.012;6.556;2022-08-18T10:07:51;22.80;99.90
52743;DHT22;55583;53.012;6.556;2022-08-18T10:10:43;22.90;99.90
52743;DHT22;55583;53.012;6.556;2022-08-18T10:23:51;22.60;99.90
52743;DHT22;55583;53.012;6.556;2022-08-18T10:34:46;23.50;99.90
52743;DHT22;55583;53.012;6.556;2022-08-18T10:39:56;23.30;99.90
52743;DHT22;55583;53.012;6.556;2022-08-18T10:42:32;23.00;99.90
52743;DHT22;55583;53.012;6.556;2022-08-18T10:45:11;22.80;99.90
52743;DHT22;55583;53.012;6.556;2022-08-18T10:47:38;22.70;99.90
52743;DHT22;55583;53.012;6.556;2022-08-18T10:50:17;22.70;99.90
52743;DHT22;55583;53.012;6.556;2022-08-18T10:53:05;22.90;99.90
52743;DHT22;55583;53.012;6.556;2022-08-18T10:55:56;22.90;99.90
52743;DHT22;55583;53.012;6.556;2022-08-18T11:04:35;22.90;99.90
52743;DHT22;55583;53.012;6.556;2022-08-18T11:07:11;22.90;99.90
52743;DHT22;55583;53.012;6.556;2022-08-18T11:09:39;22.90;99.90
52743;DHT22;55583;53.012;6.556;2022-08-18T11:12:06;22.80;99.90
52743;DHT22;55583;53.012;6.556;2022-08-18T11:15:03;22.80;99.90
52743;DHT22;55583;53.012;6.556;2022-08-18T11:17:46;22.70;99.90
52743;DHT22;55583;53.012;6.556;2022-08-18T11:20:15;22.60;99.90
52743;DHT22;55583;53.012;6.556;2022-08-18T11:22:54;22.50;99.90
52743;DHT22;55583;53.012;6.556;2022-08-18T11:25:35;22.60;99.90
52743;DHT22;55583;53.012;6.556;2022-08-18T11:28:02;22.60;99.90
52743;DHT22;55583;53.012;6.556;2022-08-18T11:30:40;22.80;99.90
52743;DHT22;55583;53.012;6.556;2022-08-18T11:33:13;23.10;99.90
52743;DHT22;55583;53.012;6.556;2022-08-18T11:35:59;23.80;99.90
52743;DHT22;55583;53.012;6.556;2022-08-18T11:38:27;24.70;99.90
52743;DHT22;55583;53.012;6.556;2022-08-18T11:41:09;26.10;99.90
52743;DHT22;55583;53.012;6.556;2022-08-18T11:43:37;27.30;99.90
52743;DHT22;55583;53.012;6.556;2022-08-18T11:46:34;28.50;99.90
52743;DHT22;55583;53.012;6.556;2022-08-18T11:49:16;29.80;99.40
52743;DHT22;55583;53.012;6.556;2022-08-18T11:52:27;30.40;97.10
52743;DHT22;55583;53.012;6.556;2022-08-18T11:55:02;31.30;80.40
52743;DHT22;55583;53.012;6.556;2022-08-18T11:57:49;32.00;86.60
52743;DHT22;55583;53.012;6.556;2022-08-18T12:00:40;33.00;73.00
52743;DHT22;55583;53.012;6.556;2022-08-18T12:05:56;33.90;61.80
52743;DHT22;55583;53.012;6.556;2022-08-18T12:08:33;33.00;62.00
52743;DHT22;55583;53.012;6.556;2022-08-18T12:11:18;32.00;71.10
52743;DHT22;55583;53.012;6.556;2022-08-18T12:13:48;32.40;74.90
52743;DHT22;55583;53.012;6.556;2022-08-18T12:16:39;32.70;68.70
52743;DHT22;55583;53.012;6.556;2022-08-18T12:19:07;31.80;65.30
52743;DHT22;55583;53.012;6.556;2022-08-18T12:21:39;30.80;81.90
52743;DHT22;55583;53.012;6.556;2022-08-18T12:24:07;29.80;89.40
52743;DHT22;55583;53.012;6.556;2022-08-18T12:26:34;29.20;94.70
52743;DHT22;55583;53.012;6.556;2022-08-18T12:29:00;28.60;95.90
52743;DHT22;55583;53.012;6.556;2022-08-18T12:31:25;28.10;97.00
52743;DHT22;55583;53.012;6.556;2022-08-18T12:33:51;27.80;96.90
52743;DHT22;55583;53.012;6.556;2022-08-18T12:36:16;27.80;98.30
52743;DHT22;55583;53.012;6.556;2022-08-18T12:38:43;27.70;98.60
52743;DHT22;55583;53.012;6.556;2022-08-18T12:41:10;27.70;98.90
52743;DHT22;55583;53.012;6.556;2022-08-18T12:43:37;27.90;99.00
52743;DHT22;55583;53.012;6.556;2022-08-18T12:46:04;28.00;99.00
52743;DHT22;55583;53.012;6.556;2022-08-18T12:48:30;28.00;97.50
52743;DHT22;55583;53.012;6.556;2022-08-18T12:50:56;28.20;97.60
52743;DHT22;55583;53.012;6.556;2022-08-18T12:53:23;28.30;98.50
52743;DHT22;55583;53.012;6.556;2022-08-18T12:55:50;28.50;97.90
52743;DHT22;55583;53.012;6.556;2022-08-18T12:58:16;28.80;95.40
52743;DHT22;55583;53.012;6.556;2022-08-18T13:00:42;28.70;96.00
52743;DHT22;55583;53.012;6.556;2022-08-18T13:03:08;28.50;96.20
52743;DHT22;55583;53.012;6.556;2022-08-18T13:05:34;28.30;97.40
52743;DHT22;55583;53.012;6.556;2022-08-18T13:08:02;28.20;97.80
52743;DHT22;55583;53.012;6.556;2022-08-18T13:10:28;28.30;96.70
52743;DHT22;55583;53.012;6.556;2022-08-18T13:12:54;28.90;96.20
52743;DHT22;55583;53.012;6.556;2022-08-18T13:15:20;29.60;94.90
52743;DHT22;55583;53.012;6.556;2022-08-18T13:17:46;30.30;91.50
52743;DHT22;55583;53.012;6.556;2022-08-18T13:20:14;30.70;86.10
52743;DHT22;55583;53.012;6.556;2022-08-18T13:22:41;31.10;82.00
52743;DHT22;55583;53.012;6.556;2022-08-18T13:25:09;31.40;78.10
52743;DHT22;55583;53.012;6.556;2022-08-18T13:27:36;31.80;78.00
52743;DHT22;55583;53.012;6.556;2022-08-18T13:30:09;32.20;70.90
52743;DHT22;55583;53.012;6.556;2022-08-18T13:32:35;32.50;64.80
52743;DHT22;55583;53.012;6.556;2022-08-18T13:35:01;32.70;64.30
52743;DHT22;55583;53.012;6.556;2022-08-18T13:37:26;32.80;63.30
52743;DHT22;55583;53.012;6.556;2022-08-18T13:39:53;32.90;62.00
52743;DHT22;55583;53.012;6.556;2022-08-18T13:42:19;33.10;61.30
52743;DHT22;55583;53.012;6.556;2022-08-18T13:44:44;33.30;61.00
52743;DHT22;55583;53.012;6.556;2022-08-18T13:47:11;33.30;59.20
52743;DHT22;55583;53.012;6.556;2022-08-18T13:49:36;33.40;60.00
52743;DHT22;55583;53.012;6.556;2022-08-18T13:52:02;33.30;59.10
52743;DHT22;55583;53.012;6.556;2022-08-18T13:54:31;33.20;57.30
52743;DHT22;55583;53.012;6.556;2022-08-18T13:56:59;32.40;58.00
52743;DHT22;55583;53.012;6.556;2022-08-18T13:59:25;31.80;61.30
52743;DHT22;55583;53.012;6.556;2022-08-18T14:01:56;31.30;63.90
52743;DHT22;55583;53.012;6.556;2022-08-18T14:04:23;30.60;66.30
52743;DHT22;55583;53.012;6.556;2022-08-18T14:06:53;30.30;70.00
52743;DHT22;55583;53.012;6.556;2022-08-18T14:09:19;30.20;75.70
52743;DHT22;55583;53.012;6.556;2022-08-18T14:11:46;29.90;76.80
52743;DHT22;55583;53.012;6.556;2022-08-18T14:14:13;29.60;76.70
52743;DHT22;55583;53.012;6.556;2022-08-18T14:16:38;29.30;80.70
52743;DHT22;55583;53.012;6.556;2022-08-18T14:19:05;29.10;83.30
52743;DHT22;55583;53.012;6.556;2022-08-18T14:21:51;28.90;85.40
52743;DHT22;55583;53.012;6.556;2022-08-18T14:24:37;28.40;87.30
52743;DHT22;55583;53.012;6.556;2022-08-18T14:27:27;28.20;93.10
52743;DHT22;55583;53.012;6.556;2022-08-18T14:29:53;28.10;92.70
52743;DHT22;55583;53.012;6.556;2022-08-18T14:32:21;28.10;93.30
52743;DHT22;55583;53.012;6.556;2022-08-18T14:34:48;28.10;94.90
52743;DHT22;55583;53.012;6.556;2022-08-18T14:37:13;28.10;94.90
52743;DHT22;55583;53.012;6.556;2022-08-18T14:39:39;28.30;93.60
52743;DHT22;55583;53.012;6.556;2022-08-18T14:42:05;28.50;91.30
52743;DHT22;55583;53.012;6.556;2022-08-18T14:44:31;29.00;92.30
52743;DHT22;55583;53.012;6.556;2022-08-18T14:46:56;29.40;90.10
52743;DHT22;55583;53.012;6.556;2022-08-18T14:49:23;29.80;84.80
52743;DHT22;55583;53.012;6.556;2022-08-18T14:51:49;30.30;82.10
52743;DHT22;55583;53.012;6.556;2022-08-18T14:54:15;30.60;78.90
52743;DHT22;55583;53.012;6.556;2022-08-18T14:56:41;31.00;70.90
52743;DHT22;55583;53.012;6.556;2022-08-18T14:59:07;31.40;67.10
52743;DHT22;55583;53.012;6.556;2022-08-18T15:01:35;31.60;67.20
52743;DHT22;55583;53.012;6.556;2022-08-18T15:04:02;31.60;63.00
52743;DHT22;55583;53.012;6.556;2022-08-18T15:06:31;31.20;63.10
52743;DHT22;55583;53.012;6.556;2022-08-18T15:08:56;30.40;64.10
52743;DHT22;55583;53.012;6.556;2022-08-18T15:11:22;29.90;73.40
52743;DHT22;55583;53.012;6.556;2022-08-18T15:13:48;29.50;82.10
52743;DHT22;55583;53.012;6.556;2022-08-18T15:16:15;29.30;84.00
52743;DHT22;55583;53.012;6.556;2022-08-18T15:18:42;29.60;81.20
52743;DHT22;55583;53.012;6.556;2022-08-18T15:21:08;29.90;79.30
52743;DHT22;55583;53.012;6.556;2022-08-18T15:23:53;30.10;76.00
52743;DHT22;55583;53.012;6.556;2022-08-18T15:26:37;30.30;73.10
52743;DHT22;55583;53.012;6.556;2022-08-18T15:29:04;30.30;73.40
52743;DHT22;55583;53.012;6.556;2022-08-18T15:31:34;30.20;71.90
52743;DHT22;55583;53.012;6.556;2022-08-18T15:34:00;30.00;72.90
52743;DHT22;55583;53.012;6.556;2022-08-18T15:36:26;30.10;75.10
52743;DHT22;55583;53.012;6.556;2022-08-18T15:38:52;30.10;71.50
52743;DHT22;55583;53.012;6.556;2022-08-18T15:41:44;30.30;73.20
52743;DHT22;55583;53.012;6.556;2022-08-18T15:44:13;30.40;72.30
52743;DHT22;55583;53.012;6.556;2022-08-18T15:46:39;30.40;71.90
52743;DHT22;55583;53.012;6.556;2022-08-18T15:49:05;30.40;70.10
52743;DHT22;55583;53.012;6.556;2022-08-18T15:51:34;30.30;70.20
52743;DHT22;55583;53.012;6.556;2022-08-18T15:54:00;30.20;73.00
52743;DHT22;55583;53.012;6.556;2022-08-18T15:56:25;30.00;74.70
52743;DHT22;55583;53.012;6.556;2022-08-18T15:58:53;29.60;82.70
52743;DHT22;55583;53.012;6.556;2022-08-18T16:01:20;29.30;84.50
52743;DHT22;55583;53.012;6.556;2022-08-18T16:03:48;28.90;85.70
52743;DHT22;55583;53.012;6.556;2022-08-18T16:06:17;28.50;88.70
52743;DHT22;55583;53.012;6.556;2022-08-18T16:08:43;28.20;91.40
52743;DHT22;55583;53.012;6.556;2022-08-18T16:11:11;27.90;91.30
52743;DHT22;55583;53.012;6.556;2022-08-18T16:13:38;27.50;92.30
52743;DHT22;55583;53.012;6.556;2022-08-18T16:16:12;27.20;94.40
52743;DHT22;55583;53.012;6.556;2022-08-18T16:18:38;27.10;95.20
52743;DHT22;55583;53.012;6.556;2022-08-18T16:21:07;26.90;96.40
52743;DHT22;55583;53.012;6.556;2022-08-18T16:23:42;26.80;97.10
52743;DHT22;55583;53.012;6.556;2022-08-18T16:26:12;26.60;97.00
52743;DHT22;55583;53.012;6.556;2022-08-18T16:28:40;26.40;97.80
52743;DHT22;55583;53.012;6.556;2022-08-18T16:31:06;26.20;97.90
52743;DHT22;55583;53.012;6.556;2022-08-18T16:33:33;26.10;98.80
52743;DHT22;55583;53.012;6.556;2022-08-18T16:36:04;26.00;98.10
52743;DHT22;55583;53.012;6.556;2022-08-18T16:38:31;25.90;99.70
52743;DHT22;55583;53.012;6.556;2022-08-18T16:41:05;25.80;99.20
52743;DHT22;55583;53.012;6.556;2022-08-18T16:43:33;25.80;99.70
52743;DHT22;55583;53.012;6.556;2022-08-18T16:45:59;25.70;99.80
52743;DHT22;55583;53.012;6.556;2022-08-18T16:48:27;25.60;99.80
52743;DHT22;55583;53.012;6.556;2022-08-18T16:50:53;25.50;99.40
52743;DHT22;55583;53.012;6.556;2022-08-18T16:53:19;25.40;99.40
52743;DHT22;55583;53.012;6.556;2022-08-18T16:55:44;25.20;99.40
52743;DHT22;55583;53.012;6.556;2022-08-18T16:58:10;25.10;98.70
52743;DHT22;55583;53.012;6.556;2022-08-18T17:00:56;25.00;98.40
52743;DHT22;55583;53.012;6.556;2022-08-18T17:03:40;24.90;97.80
52743;DHT22;55583;53.012;6.556;2022-08-18T17:06:25;24.80;96.90
52743;DHT22;55583;53.012;6.556;2022-08-18T17:08:53;24.60;95.80
52743;DHT22;55583;53.012;6.556;2022-08-18T17:11:20;24.40;94.80
52743;DHT22;55583;53.012;6.556;2022-08-18T17:13:47;24.30;93.90
52743;DHT22;55583;53.012;6.556;2022-08-18T17:16:14;24.20;92.70
52743;DHT22;55583;53.012;6.556;2022-08-18T17:18:40;24.10;91.80
52743;DHT22;55583;53.012;6.556;2022-08-18T17:21:08;24.00;91.20
52743;DHT22;55583;53.012;6.556;2022-08-18T17:23:35;23.90;91.20
52743;DHT22;55583;53.012;6.556;2022-08-18T17:26:01;23.90;90.90
52743;DHT22;55583;53.012;6.556;2022-08-18T17:28:35;23.80;91.10
52743;DHT22;55583;53.012;6.556;2022-08-18T17:31:04;23.70;91.30
52743;DHT22;55583;53.012;6.556;2022-08-18T17:33:32;23.60;90.90
52743;DHT22;55583;53.012;6.556;2022-08-18T17:36:04;23.40;91.20
52743;DHT22;55583;53.012;6.556;2022-08-18T17:41:10;23.20;91.80
52743;DHT22;55583;53.012;6.556;2022-08-18T17:43:37;23.10;92.30
52743;DHT22;55583;53.012;6.556;2022-08-18T17:46:24;23.00;92.30
52743;DHT22;55583;53.012;6.556;2022-08-18T17:48:58;23.00;93.70
52743;DHT22;55583;53.012;6.556;2022-08-18T17:51:42;22.90;93.10
52743;DHT22;55583;53.012;6.556;2022-08-18T17:54:35;22.90;93.40
52743;DHT22;55583;53.012;6.556;2022-08-18T17:57:28;22.70;93.80